Terminal Aerodrome Forecast
Issued by NWS

Home | Current Version | Previous Version | Text Only | Print | Product List | Glossary On
Versions: 1 2 3 4 5 6 7 8 9 10 11 12 13 14 15 16 17 18 19 20 21
054
FTUS43 KSGF 272040 AAB
TAFJLN
TAF AMD
KJLN 272040Z 2721/2818 33010KT P6SM OVC008
     FM272115 32008KT P6SM OVC015
     FM281100 05005KT P6SM BKN010
     FM281200 06005KT P6SM BKN008
     FM281300 07006KT P6SM BKN010=

USA.gov is the U.S. government's official web portal to all federal, state and local government web resources and services.